createdAt,value
2022-08-03T00:01:52.659Z,22.23
2022-08-03T00:04:33.798Z,22.19
2022-08-03T00:07:02.341Z,22.18
2022-08-03T00:09:35.474Z,22.16
2022-08-03T00:12:06.765Z,22.17
2022-08-03T00:14:37.244Z,22.16
2022-08-03T00:17:06.980Z,22.14
2022-08-03T00:19:37.899Z,22.13
2022-08-03T00:22:05.813Z,22.10
2022-08-03T00:24:36.223Z,22.07
2022-08-03T00:27:07.376Z,22.04
2022-08-03T00:30:00.001Z,22.01
2022-08-03T00:32:29.685Z,21.97
2022-08-03T00:34:59.230Z,21.95
2022-08-03T00:37:41.482Z,21.92
2022-08-03T00:40:16.725Z,21.91
2022-08-03T00:42:53.865Z,21.87
2022-08-03T00:45:26.339Z,21.83
2022-08-03T00:47:54.947Z,21.79
2022-08-03T00:50:25.156Z,21.76
2022-08-03T00:52:58.103Z,21.73
2022-08-03T00:55:27.905Z,21.73
2022-08-03T00:58:01.800Z,21.71
2022-08-03T01:00:29.759Z,21.69
2022-08-03T01:02:57.656Z,21.69
2022-08-03T01:05:42.425Z,21.68
2022-08-03T01:08:37.088Z,21.64
2022-08-03T01:11:13.462Z,21.58
2022-08-03T01:14:01.944Z,21.56
2022-08-03T01:16:52.965Z,21.54
2022-08-03T01:19:37.118Z,21.52
2022-08-03T01:22:12.174Z,21.47
2022-08-03T01:24:56.712Z,21.45
2022-08-03T01:27:44.248Z,21.44
2022-08-03T01:30:15.877Z,21.38
2022-08-03T01:32:58.465Z,21.35
2022-08-03T01:35:48.273Z,21.28
2022-08-03T01:38:23.298Z,21.29
2022-08-03T01:40:54.677Z,21.26
2022-08-03T01:44:27.593Z,21.27
2022-08-03T01:46:18.940Z,21.22
2022-08-03T01:48:50.924Z,21.15
2022-08-03T01:51:21.241Z,21.16
2022-08-03T01:53:55.957Z,21.11
2022-08-03T01:56:33.493Z,21.14
2022-08-03T01:59:05.423Z,21.13
2022-08-03T02:02:15.663Z,21.11
2022-08-03T02:04:26.872Z,21.07
2022-08-03T02:07:01.255Z,21.08
2022-08-03T02:09:32.082Z,21.05
2022-08-03T02:12:03.770Z,21.05
2022-08-03T02:14:38.611Z,21.04
2022-08-03T02:17:08.846Z,20.99
2022-08-03T02:20:02.275Z,20.95
2022-08-03T02:22:38.684Z,20.93
2022-08-03T02:25:08.060Z,20.91
2022-08-03T02:27:43.847Z,20.89
2022-08-03T02:30:13.589Z,20.83
2022-08-03T02:32:52.103Z,20.87
2022-08-03T02:35:23.975Z,20.84
2022-08-03T02:37:55.885Z,20.83
2022-08-03T02:40:28.992Z,20.82
2022-08-03T02:43:01.242Z,20.70
2022-08-03T02:45:33.891Z,20.77
2022-08-03T02:48:06.781Z,20.77
2022-08-03T02:50:35.955Z,20.76
2022-08-03T02:53:05.578Z,20.73
2022-08-03T02:55:36.975Z,20.71
2022-08-03T02:58:15.180Z,20.70
2022-08-03T03:00:47.093Z,20.69
2022-08-03T03:03:16.695Z,20.68
2022-08-03T03:05:56.074Z,20.65
2022-08-03T03:08:28.830Z,20.63
2022-08-03T03:10:59.208Z,20.61
2022-08-03T03:13:29.258Z,20.57
2022-08-03T03:16:00.775Z,20.58
2022-08-03T03:18:32.149Z,20.56
2022-08-03T03:21:01.819Z,20.55
2022-08-03T03:23:30.659Z,20.53
2022-08-03T03:26:04.289Z,20.52
2022-08-03T03:28:33.515Z,20.51
2022-08-03T03:31:04.528Z,20.34
2022-08-03T03:33:40.455Z,20.53
2022-08-03T03:36:11.310Z,20.52
2022-08-03T03:38:39.249Z,20.52
2022-08-03T03:41:07.486Z,20.51
2022-08-03T03:43:36.048Z,20.51
2022-08-03T03:46:04.775Z,20.50
2022-08-03T03:48:35.183Z,20.50
2022-08-03T03:51:03.687Z,20.48
2022-08-03T03:53:34.624Z,20.49
2022-08-03T03:56:05.679Z,20.48
2022-08-03T03:58:34.256Z,20.49
2022-08-03T04:01:04.873Z,20.48
2022-08-03T04:03:37.189Z,20.48
2022-08-03T04:06:23.187Z,20.48
2022-08-03T04:09:10.597Z,20.46
2022-08-03T04:11:42.820Z,20.44
2022-08-03T04:14:23.948Z,20.50
2022-08-03T04:16:56.073Z,20.48
2022-08-03T04:19:29.616Z,20.52
2022-08-03T04:22:02.439Z,20.53
2022-08-03T04:24:35.223Z,20.55
2022-08-03T04:27:08.230Z,20.59
2022-08-03T04:29:46.427Z,20.62
2022-08-03T04:32:17.237Z,20.65
2022-08-03T04:34:47.311Z,20.68
2022-08-03T04:37:44.713Z,20.69
2022-08-03T04:40:38.267Z,20.71
2022-08-03T04:43:10.375Z,20.73
2022-08-03T04:45:44.165Z,20.76
2022-08-03T04:51:17.069Z,20.82
2022-08-03T04:53:45.497Z,20.85
2022-08-03T04:56:19.098Z,20.87
2022-08-03T04:58:47.056Z,20.94
2022-08-03T05:01:20.447Z,20.98
2022-08-03T05:03:48.399Z,21.02
2022-08-03T05:06:17.584Z,21.09
2022-08-03T05:08:51.987Z,21.14
2022-08-03T05:11:29.612Z,21.19
2022-08-03T05:13:57.399Z,21.25
2022-08-03T05:16:26.726Z,21.42
2022-08-03T05:18:54.602Z,22.79
2022-08-03T05:21:23.937Z,24.75
2022-08-03T05:23:57.806Z,26.36
2022-08-03T05:26:25.910Z,27.59
2022-08-03T05:28:54.679Z,28.35
2022-08-03T05:31:33.450Z,28.88
2022-08-03T05:34:04.156Z,28.88
2022-08-03T05:36:35.796Z,30.07
2022-08-03T05:39:06.617Z,30.39
2022-08-03T05:41:37.097Z,30.82
2022-08-03T05:44:14.708Z,30.83
2022-08-03T05:46:44.027Z,30.71
2022-08-03T05:49:17.695Z,30.72
2022-08-03T05:52:00.149Z,30.84
2022-08-03T05:54:56.199Z,30.68
2022-08-03T06:00:30.485Z,30.66
2022-08-03T06:02:59.373Z,30.84
2022-08-03T06:05:36.466Z,31.06
2022-08-03T06:08:15.521Z,30.32
2022-08-03T06:10:45.723Z,29.32
2022-08-03T06:13:14.242Z,28.88
2022-08-03T06:15:44.589Z,29.40
2022-08-03T06:18:12.528Z,30.59
2022-08-03T06:20:40.454Z,31.51
2022-08-03T06:23:16.136Z,31.97
2022-08-03T06:25:47.460Z,30.92
2022-08-03T06:28:51.534Z,30.45
2022-08-03T06:31:09.279Z,30.25
2022-08-03T06:34:30.489Z,29.99
2022-08-03T06:36:40.055Z,29.67
2022-08-03T06:39:08.499Z,29.44
2022-08-03T06:41:46.714Z,29.12
2022-08-03T06:44:14.896Z,28.79
2022-08-03T06:46:52.498Z,28.55
2022-08-03T06:49:20.643Z,28.29
2022-08-03T06:52:04.539Z,27.82
2022-08-03T06:54:36.291Z,27.50
2022-08-03T06:57:09.655Z,27.22
2022-08-03T07:00:09.553Z,27.14
2022-08-03T07:02:29.243Z,27.05
2022-08-03T07:05:00.137Z,27.16
2022-08-03T07:07:28.172Z,27.22
2022-08-03T07:10:02.538Z,27.13
2022-08-03T07:12:34.728Z,27.15
2022-08-03T07:15:03.767Z,27.17
2022-08-03T07:17:33.299Z,27.24
2022-08-03T07:20:02.186Z,27.24
2022-08-03T07:22:32.610Z,27.15
2022-08-03T07:25:00.455Z,27.08
2022-08-03T07:27:29.296Z,26.97
2022-08-03T07:30:01.672Z,26.77
2022-08-03T07:32:32.530Z,26.63
2022-08-03T07:35:01.344Z,26.59
2022-08-03T07:37:35.576Z,26.60
2022-08-03T07:40:05.724Z,26.62
2022-08-03T07:42:33.883Z,26.70
2022-08-03T07:45:03.528Z,26.85
2022-08-03T07:47:39.937Z,26.98
2022-08-03T07:50:11.654Z,27.05
2022-08-03T07:52:51.775Z,27.04
2022-08-03T07:55:20.924Z,27.05
2022-08-03T07:57:49.034Z,27.08
2022-08-03T08:00:21.345Z,27.17
2022-08-03T08:02:52.351Z,27.26
2022-08-03T08:05:20.746Z,27.36
2022-08-03T08:08:01.574Z,27.39
2022-08-03T08:10:29.775Z,27.45
2022-08-03T08:13:04.301Z,27.52
2022-08-03T08:15:36.455Z,27.58
2022-08-03T08:18:15.898Z,27.64
2022-08-03T08:20:43.798Z,27.65
2022-08-03T08:23:42.746Z,27.64
2022-08-03T08:26:11.613Z,27.66
2022-08-03T08:28:39.999Z,27.73
2022-08-03T08:31:09.208Z,27.83
2022-08-03T08:34:02.624Z,27.86
2022-08-03T08:36:25.480Z,27.90
2022-08-03T08:38:53.401Z,27.93
2022-08-03T08:41:21.333Z,28.01
2022-08-03T08:43:49.222Z,28.09
2022-08-03T08:46:23.946Z,28.09
2022-08-03T08:48:58.998Z,28.13
2022-08-03T08:51:54.658Z,28.23
2022-08-03T08:54:27.948Z,28.28
2022-08-03T08:56:59.286Z,28.26
2022-08-03T08:59:27.895Z,28.24
2022-08-03T09:02:20.043Z,28.30
2022-08-03T09:04:54.842Z,28.40
2022-08-03T09:07:23.258Z,28.49
2022-08-03T09:10:10.948Z,28.53
2022-08-03T09:12:42.708Z,28.57
2022-08-03T09:15:22.847Z,28.62
2022-08-03T09:17:54.072Z,28.64
2022-08-03T09:20:24.467Z,28.72
2022-08-03T09:22:58.902Z,28.81
2022-08-03T09:25:31.069Z,28.72
2022-08-03T09:28:10.389Z,28.86
2022-08-03T09:30:39.868Z,28.89
2022-08-03T09:33:10.869Z,28.96
2022-08-03T09:35:54.965Z,29.04
2022-08-03T09:38:27.498Z,29.08
2022-08-03T09:41:00.219Z,29.08
2022-08-03T09:43:28.763Z,29.12
2022-08-03T09:46:09.032Z,29.20
2022-08-03T09:48:43.366Z,29.31
2022-08-03T09:52:30.120Z,29.35
2022-08-03T09:54:16.283Z,29.37
2022-08-03T09:56:47.269Z,29.42
2022-08-03T09:59:24.910Z,29.46
2022-08-03T10:01:54.675Z,29.52
2022-08-03T10:04:24.514Z,29.57
2022-08-03T10:07:07.248Z,29.72
2022-08-03T10:09:35.269Z,29.70
2022-08-03T10:12:10.715Z,29.74
2022-08-03T10:14:40.303Z,29.81
2022-08-03T10:17:08.184Z,29.84
2022-08-03T10:19:37.539Z,29.69
2022-08-03T10:22:11.605Z,29.78
2022-08-03T10:24:52.089Z,29.91
2022-08-03T10:27:21.271Z,30.05
2022-08-03T10:29:53.749Z,30.17
2022-08-03T10:32:30.047Z,30.31
2022-08-03T10:35:19.105Z,30.42
2022-08-03T10:37:57.072Z,30.43
2022-08-03T10:43:21.570Z,30.39
2022-08-03T10:45:52.315Z,30.42
2022-08-03T10:48:23.272Z,30.50
2022-08-03T10:50:53.385Z,30.57
2022-08-03T10:53:36.694Z,30.58
2022-08-03T10:56:41.451Z,30.57
2022-08-03T10:59:27.448Z,30.67
2022-08-03T11:01:59.525Z,30.79
2022-08-03T11:04:34.937Z,30.91
2022-08-03T11:07:23.845Z,30.92
2022-08-03T11:09:52.925Z,30.96
2022-08-03T11:12:30.393Z,30.93
2022-08-03T11:15:08.712Z,30.91
2022-08-03T11:17:45.951Z,30.92
2022-08-03T11:20:45.102Z,31.04
2022-08-03T11:23:16.812Z,31.09
2022-08-03T11:26:12.338Z,31.19
2022-08-03T11:28:48.578Z,31.32
2022-08-03T11:31:52.060Z,31.56
2022-08-03T11:34:20.070Z,31.68
2022-08-03T11:37:24.632Z,31.69
2022-08-03T11:39:57.110Z,31.65
2022-08-03T11:42:48.233Z,31.76
2022-08-03T11:45:19.921Z,31.80
2022-08-03T11:47:54.997Z,31.90
2022-08-03T11:50:24.379Z,32.04
2022-08-03T11:52:52.384Z,32.03
2022-08-03T11:55:22.380Z,32.01
2022-08-03T11:59:01.068Z,31.94
2022-08-03T12:00:38.324Z,31.82
2022-08-03T12:03:07.803Z,31.82
2022-08-03T12:05:56.803Z,31.85
2022-08-03T12:08:34.492Z,32.01
2022-08-03T12:11:08.864Z,32.05
2022-08-03T12:14:10.469Z,32.07
2022-08-03T12:16:36.671Z,32.10
2022-08-03T12:19:06.659Z,32.09
2022-08-03T12:21:34.734Z,32.18
2022-08-03T12:24:04.026Z,32.19
2022-08-03T12:26:58.716Z,32.29
2022-08-03T12:29:33.200Z,32.40
2022-08-03T12:32:01.259Z,32.38
2022-08-03T12:34:47.586Z,32.38
2022-08-03T12:37:21.825Z,32.36
2022-08-03T12:40:02.475Z,32.31
2022-08-03T12:42:36.641Z,32.08
2022-08-03T12:45:19.740Z,32.04
2022-08-03T12:47:52.187Z,31.99
2022-08-03T12:50:31.772Z,31.89
2022-08-03T12:53:03.119Z,32.03
2022-08-03T12:55:57.739Z,32.23
2022-08-03T12:58:37.026Z,32.24
2022-08-03T13:01:09.457Z,32.25
2022-08-03T13:03:42.396Z,32.28
2022-08-03T13:06:15.014Z,32.43
2022-08-03T13:08:47.881Z,32.36
2022-08-03T13:11:55.547Z,32.07
2022-08-03T13:14:19.757Z,31.90
2022-08-03T13:16:49.324Z,31.77
2022-08-03T13:19:19.807Z,31.94
2022-08-03T13:22:01.659Z,32.01
2022-08-03T13:24:32.137Z,31.95
2022-08-03T13:27:00.108Z,31.82
2022-08-03T13:29:29.408Z,31.72
2022-08-03T13:32:02.325Z,31.91
2022-08-03T13:34:30.294Z,32.22
2022-08-03T13:37:08.806Z,32.26
2022-08-03T13:39:57.681Z,32.42
2022-08-03T13:42:24.908Z,32.38
2022-08-03T13:44:54.188Z,32.42
2022-08-03T13:47:23.144Z,32.46
2022-08-03T13:50:01.862Z,32.58
2022-08-03T13:52:31.952Z,32.61
2022-08-03T13:55:03.200Z,32.72
2022-08-03T13:58:11.760Z,32.81
2022-08-03T14:00:27.874Z,32.84
2022-08-03T14:03:16.374Z,32.94
2022-08-03T14:05:50.404Z,33.03
2022-08-03T14:08:18.462Z,33.05
2022-08-03T14:10:46.917Z,33.12
2022-08-03T14:13:18.039Z,33.03
2022-08-03T14:15:51.227Z,32.99
2022-08-03T14:18:28.971Z,33.04
2022-08-03T14:21:07.235Z,33.14
2022-08-03T14:23:37.391Z,33.17
2022-08-03T14:26:05.783Z,33.29
2022-08-03T14:28:41.465Z,33.35
2022-08-03T14:31:15.467Z,33.45
2022-08-03T14:33:58.775Z,33.44
2022-08-03T14:36:26.847Z,33.49
2022-08-03T14:39:08.604Z,33.40
2022-08-03T14:41:39.240Z,33.35
2022-08-03T14:44:08.888Z,33.20
2022-08-03T14:46:48.582Z,33.35
2022-08-03T14:50:38.187Z,33.44
2022-08-03T14:52:10.511Z,33.55
2022-08-03T14:54:38.425Z,33.51
2022-08-03T14:57:11.482Z,33.47
2022-08-03T14:59:56.376Z,33.42
2022-08-03T15:02:30.449Z,33.38
2022-08-03T15:04:58.241Z,33.30
2022-08-03T15:07:28.487Z,33.28
2022-08-03T15:09:56.266Z,33.26
2022-08-03T15:12:33.381Z,33.31
2022-08-03T15:15:03.856Z,33.39
2022-08-03T15:18:00.341Z,33.40
2022-08-03T15:20:38.030Z,33.37
2022-08-03T15:23:10.869Z,33.36
2022-08-03T15:26:29.552Z,33.39
2022-08-03T15:28:37.766Z,33.42
2022-08-03T15:31:06.606Z,33.48
2022-08-03T15:33:41.218Z,33.45
2022-08-03T15:36:09.118Z,33.40
2022-08-03T15:38:36.904Z,33.41
2022-08-03T15:41:09.928Z,33.37
2022-08-03T15:43:41.899Z,33.42
2022-08-03T15:46:31.514Z,33.39
2022-08-03T15:49:16.587Z,33.35
2022-08-03T15:51:46.972Z,33.36
2022-08-03T15:54:15.130Z,33.36
2022-08-03T15:56:47.476Z,33.29
2022-08-03T15:59:42.581Z,33.25
2022-08-03T16:02:11.003Z,33.16
2022-08-03T16:04:55.131Z,32.98
2022-08-03T16:07:40.332Z,32.88
2022-08-03T16:10:30.512Z,32.73
2022-08-03T16:13:00.327Z,32.65
2022-08-03T16:15:38.945Z,32.62
2022-08-03T16:18:08.007Z,32.61
2022-08-03T16:20:44.774Z,32.58
2022-08-03T16:23:15.209Z,32.59
2022-08-03T16:25:49.545Z,32.58
2022-08-03T16:28:18.204Z,32.58
2022-08-03T16:30:55.079Z,32.62
2022-08-03T16:33:26.926Z,32.59
2022-08-03T16:36:02.575Z,32.50
2022-08-03T16:38:31.459Z,32.53
2022-08-03T16:40:59.592Z,32.50
2022-08-03T16:43:27.875Z,32.46
2022-08-03T16:45:58.477Z,32.46
2022-08-03T16:48:29.851Z,32.51
2022-08-03T16:50:57.833Z,32.52
2022-08-03T16:54:08.157Z,32.51
2022-08-03T16:56:15.639Z,32.54
2022-08-03T16:58:44.573Z,32.56
2022-08-03T17:01:21.687Z,32.53
2022-08-03T17:04:02.197Z,32.45
2022-08-03T17:06:33.906Z,32.33
2022-08-03T17:09:09.119Z,32.27
2022-08-03T17:11:44.076Z,32.22
2022-08-03T17:14:15.869Z,32.18
2022-08-03T17:16:52.791Z,32.11
2022-08-03T17:19:26.588Z,32.07
2022-08-03T17:22:04.454Z,32.00
2022-08-03T17:24:37.041Z,31.96
2022-08-03T17:28:51.235Z,31.94
2022-08-03T17:30:11.994Z,31.83
2022-08-03T17:32:57.685Z,31.79
2022-08-03T17:35:34.504Z,31.68
2022-08-03T17:38:08.950Z,31.62
2022-08-03T17:40:50.056Z,31.55
2022-08-03T17:46:10.906Z,31.46
2022-08-03T17:48:42.062Z,31.42
2022-08-03T17:51:17.258Z,31.36
2022-08-03T17:53:50.764Z,31.30
2022-08-03T17:56:44.971Z,31.14
2022-08-03T17:59:50.553Z,31.10
2022-08-03T18:02:47.666Z,30.99
2022-08-03T18:05:18.700Z,30.96
2022-08-03T18:10:49.527Z,30.82
2022-08-03T18:13:24.626Z,30.74
2022-08-03T18:15:55.289Z,30.65
2022-08-03T18:18:32.955Z,30.57
2022-08-03T18:21:06.839Z,30.56
2022-08-03T18:23:44.060Z,30.45
2022-08-03T18:26:14.631Z,30.44
2022-08-03T18:28:50.616Z,30.37
2022-08-03T18:32:03.580Z,30.33
2022-08-03T18:34:19.531Z,30.27
2022-08-03T18:37:07.438Z,30.15
2022-08-03T18:39:50.158Z,30.08
2022-08-03T18:42:25.720Z,29.99
2022-08-03T18:45:14.988Z,29.90
2022-08-03T18:48:00.225Z,29.78
2022-08-03T18:50:49.549Z,29.62
2022-08-03T18:53:21.798Z,29.59
2022-08-03T18:56:02.246Z,29.54
2022-08-03T18:58:36.409Z,29.50
2022-08-03T19:01:57.870Z,29.29
2022-08-03T19:04:12.966Z,29.24
2022-08-03T19:06:44.963Z,29.18
2022-08-03T19:09:23.505Z,29.14
2022-08-03T19:12:13.189Z,29.07
2022-08-03T19:14:56.221Z,28.99
2022-08-03T19:17:53.025Z,28.94
2022-08-03T19:20:25.115Z,28.90
2022-08-03T19:22:54.282Z,28.69
2022-08-03T19:25:34.272Z,28.77
2022-08-03T19:28:07.272Z,28.71
2022-08-03T19:30:39.964Z,28.63
2022-08-03T19:33:13.789Z,28.59
2022-08-03T19:35:51.354Z,28.52
2022-08-03T19:38:28.185Z,28.33
2022-08-03T19:41:03.950Z,28.40
2022-08-03T19:43:49.499Z,28.34
2022-08-03T19:46:30.314Z,28.26
2022-08-03T19:50:02.816Z,28.22
2022-08-03T19:52:24.339Z,28.16
2022-08-03T19:55:01.849Z,28.09
2022-08-03T19:57:33.780Z,28.02
2022-08-03T20:00:07.841Z,27.91
2022-08-03T20:02:36.280Z,27.79
2022-08-03T20:05:14.873Z,27.68
2022-08-03T20:07:47.873Z,27.63
2022-08-03T20:10:27.773Z,27.55
2022-08-03T20:13:00.703Z,27.47
2022-08-03T20:15:32.144Z,27.42
2022-08-03T20:18:00.729Z,27.35
2022-08-03T20:20:37.178Z,27.30
2022-08-03T20:23:07.750Z,27.21
2022-08-03T20:25:48.710Z,27.12
2022-08-03T20:28:32.265Z,27.03
2022-08-03T20:31:01.897Z,27.00
2022-08-03T20:33:46.144Z,26.94
2022-08-03T20:36:20.586Z,26.91
2022-08-03T20:38:51.951Z,26.87
2022-08-03T20:41:23.764Z,26.85
2022-08-03T20:44:11.779Z,26.85
2022-08-03T20:46:50.155Z,26.84
2022-08-03T20:49:24.715Z,26.84
2022-08-03T20:51:56.573Z,26.83
2022-08-03T20:54:29.402Z,26.86
2022-08-03T20:57:00.321Z,26.90
2022-08-03T20:59:38.554Z,26.87
2022-08-03T21:02:19.925Z,26.78
2022-08-03T21:04:57.501Z,26.76
2022-08-03T21:08:03.882Z,26.68
2022-08-03T21:10:18.188Z,26.59
2022-08-03T21:12:51.899Z,26.52
2022-08-03T21:12:54.884Z,31.50
2022-08-03T21:13:05.980Z,30.90
2022-08-03T21:16:02.303Z,26.39
2022-08-03T21:18:16.888Z,26.38
2022-08-03T21:20:47.091Z,26.33
2022-08-03T21:23:39.845Z,26.27
2022-08-03T21:26:11.339Z,26.25
2022-08-03T21:28:40.030Z,26.19
2022-08-03T21:31:11.123Z,26.18
2022-08-03T21:33:39.648Z,26.17
2022-08-03T21:36:14.140Z,26.16
2022-08-03T21:38:44.111Z,26.11
2022-08-03T21:41:15.554Z,26.08
2022-08-03T21:43:46.060Z,26.06
2022-08-03T21:46:20.032Z,26.02
2022-08-03T21:48:56.022Z,26.00
2022-08-03T21:51:26.061Z,25.97
2022-08-03T21:54:03.305Z,25.93
2022-08-03T21:56:37.570Z,25.89
2022-08-03T21:59:08.638Z,25.84
2022-08-03T22:01:43.156Z,25.82
2022-08-03T22:04:55.345Z,25.72
2022-08-03T22:07:12.245Z,25.71
2022-08-03T22:09:51.452Z,25.68
2022-08-03T22:12:23.964Z,25.66
2022-08-03T22:15:01.242Z,25.62
2022-08-03T22:17:55.986Z,25.60
2022-08-03T22:20:23.304Z,25.57
2022-08-03T22:22:56.620Z,25.54
2022-08-03T22:25:40.670Z,25.50
2022-08-03T22:28:16.108Z,25.42
2022-08-03T22:30:44.711Z,25.48
2022-08-03T22:33:16.765Z,25.48
2022-08-03T22:35:52.325Z,25.30
2022-08-03T22:38:20.422Z,25.52
2022-08-03T22:40:51.199Z,25.48
2022-08-03T22:43:23.594Z,25.37
2022-08-03T22:46:09.776Z,25.39
2022-08-03T22:48:41.847Z,25.34
2022-08-03T22:51:38.912Z,25.27
2022-08-03T22:54:11.352Z,25.27
2022-08-03T22:56:41.368Z,25.30
2022-08-03T22:59:41.378Z,25.31
2022-08-03T23:02:20.106Z,25.31
2022-08-03T23:04:53.290Z,25.31
2022-08-03T23:07:31.314Z,25.29
2022-08-03T23:10:02.534Z,25.21
2022-08-03T23:12:36.363Z,25.13
2022-08-03T23:15:09.740Z,25.05
2022-08-03T23:17:57.673Z,24.98
2022-08-03T23:20:28.942Z,24.97
2022-08-03T23:22:58.807Z,24.99
2022-08-03T23:25:27.521Z,24.92
2022-08-03T23:28:04.935Z,24.96
2022-08-03T23:30:35.630Z,24.94
2022-08-03T23:33:05.796Z,24.88
2022-08-03T23:36:22.660Z,24.81
2022-08-03T23:38:46.001Z,24.74
2022-08-03T23:41:26.715Z,24.71
2022-08-03T23:43:57.193Z,24.64
2022-08-03T23:46:30.262Z,24.66
2022-08-03T23:49:00.286Z,24.75
2022-08-03T23:51:40.200Z,24.76
2022-08-03T23:54:18.541Z,24.71
2022-08-03T23:57:09.627Z,24.63
2022-08-03T23:59:50.725Z,24.56
